Wetterstation Vordersexau
Wetterdaten: Woche 11.06.18 - 17.06.18 (KW24)
Datum Zeit Temp. A. Feuchte A. Luftdruck Regen Wind Richtung Taupunkt Windchill Windben
11.06.2018 00:00 19,4 C 82 % 1008,7 hPa 0,0 l/m 7,1 km/h NO 16,2 C 19,1 C 4,0 km/h
11.06.2018 01:00 19,1 C 83 % 1008,6 hPa 0,0 l/m 0,0 km/h SO 16,1 C 19,1 C 0,0 km/h
11.06.2018 02:00 18,9 C 83 % 1008,1 hPa 0,0 l/m 0,0 km/h O-NO 15,9 C 18,9 C 0,0 km/h
11.06.2018 03:00 18,3 C 83 % 1007,6 hPa 0,0 l/m 0,0 km/h O-NO 15,4 C 18,3 C 0,0 km/h
11.06.2018 04:00 17,5 C 84 % 1007,8 hPa 0,0 l/m 0,0 km/h O-NO 14,8 C 17,5 C 0,0 km/h
11.06.2018 05:00 17,3 C 83 % 1007,2 hPa 0,0 l/m 0,0 km/h O-SO 14,4 C 17,3 C 0,0 km/h
11.06.2018 06:00 17,9 C 83 % 1007,5 hPa 0,0 l/m 0,0 km/h O-SO 15,0 C 17,9 C 0,0 km/h
11.06.2018 07:00 18,8 C 83 % 1007,5 hPa 0,0 l/m 0,0 km/h O-NO 15,8 C 18,8 C 0,0 km/h
11.06.2018 08:00 19,9 C 83 % 1007,6 hPa 0,0 l/m 0,0 km/h S-SO 16,9 C 19,9 C 0,0 km/h
11.06.2018 09:00 21,5 C 83 % 1007,3 hPa 0,0 l/m 0,0 km/h S-SW 18,5 C 21,5 C 0,0 km/h
11.06.2018 10:00 22,8 C 79 % 1007,3 hPa 0,0 l/m 0,0 km/h W-SW 19,0 C 22,8 C 0,0 km/h
11.06.2018 11:00 22,7 C 80 % 1007,4 hPa 0,0 l/m 0,0 km/h W-SW 19,1 C 22,7 C 0,0 km/h
11.06.2018 12:00 24,3 C 74 % 1007,0 hPa 0,0 l/m 0,0 km/h W-SW 19,4 C 24,3 C 0,0 km/h
11.06.2018 13:00 25,0 C 71 % 1006,9 hPa 0,0 l/m 0,0 km/h W-SW 19,4 C 25,0 C 0,0 km/h
11.06.2018 14:00 23,1 C 77 % 1006,6 hPa 0,0 l/m 11,0 km/h S 18,8 C 21,8 C 6,1 km/h
11.06.2018 15:00 20,5 C 80 % 1007,1 hPa 0,0 l/m 7,1 km/h W 16,9 C 20,2 C 4,0 km/h
11.06.2018 16:00 18,8 C 83 % 1007,3 hPa 0,0 l/m 18,8 km/h O-NO 15,8 C 14,9 C 10,4 km/h
11.06.2018 17:00 17,8 C 83 % 1006,6 hPa 4,1 l/m 0,0 km/h NO 14,9 C 17,8 C 0,0 km/h
11.06.2018 18:00 20,2 C 82 % 1006,6 hPa 0,0 l/m 0,0 km/h NO 17,0 C 20,2 C 0,0 km/h
11.06.2018 19:00 20,7 C 83 % 1006,9 hPa 0,0 l/m 0,0 km/h O-NO 17,7 C 20,7 C 0,0 km/h
11.06.2018 20:00 20,0 C 83 % 1007,1 hPa 0,0 l/m 0,0 km/h NO 17,0 C 20,0 C 0,0 km/h
11.06.2018 21:00 18,4 C 83 % 1006,6 hPa 0,0 l/m 0,0 km/h NO 15,5 C 18,4 C 0,0 km/h
11.06.2018 22:00 17,6 C 83 % 1006,6 hPa 0,0 l/m 0,0 km/h O-NO 14,7 C 17,6 C 0,0 km/h
11.06.2018 23:00 16,9 C 82 % 1006,8 hPa 0,0 l/m 0,0 km/h O-NO 13,8 C 16,9 C 0,0 km/h
12.06.2018 00:00 16,7 C 81 % 1006,7 hPa 0,0 l/m 0,0 km/h O-NO 13,4 C 16,7 C 0,0 km/h
12.06.2018 01:00 16,8 C 81 % 1007,0 hPa 0,0 l/m 0,0 km/h O-NO 13,5 C 16,8 C 0,0 km/h
12.06.2018 02:00 16,7 C 81 % 1007,0 hPa 0,0 l/m 0,0 km/h O-NO 13,4 C 16,7 C 0,0 km/h
12.06.2018 03:00 16,8 C 79 % 1006,7 hPa 0,0 l/m 0,0 km/h O-SO 13,1 C 16,8 C 0,0 km/h
12.06.2018 04:00 16,9 C 77 % 1006,2 hPa 0,0 l/m 0,0 km/h SO 12,8 C 16,9 C 0,0 km/h
12.06.2018 05:00 16,6 C 77 % 1006,2 hPa 0,5 l/m 0,0 km/h O-SO 12,5 C 16,6 C 0,0 km/h
12.06.2018 06:00 16,9 C 75 % 1006,5 hPa 0,0 l/m 0,0 km/h O-SO 12,4 C 16,9 C 0,0 km/h
12.06.2018 07:00 17,6 C 75 % 1006,8 hPa 0,0 l/m 0,0 km/h S-SW 13,1 C 17,6 C 0,0 km/h
12.06.2018 08:00 18,4 C 79 % 1007,0 hPa 0,0 l/m 14,9 km/h S 14,7 C 15,3 C 8,3 km/h
12.06.2018 09:00 19,2 C 83 % 1006,9 hPa 0,0 l/m 0,0 km/h S 16,2 C 19,2 C 0,0 km/h
12.06.2018 10:00 19,4 C 79 % 1007,2 hPa 0,0 l/m 0,0 km/h W-SW 15,7 C 19,4 C 0,0 km/h
12.06.2018 11:00 20,4 C 75 % 1007,3 hPa 0,0 l/m 1,3 km/h W-SW 15,8 C 20,4 C 0,7 km/h
12.06.2018 12:00 21,3 C 72 % 1007,1 hPa 0,0 l/m 20,1 km/h W-SW 16,0 C 17,9 C 11,2 km/h
12.06.2018 13:00 21,6 C 72 % 1006,9 hPa 0,0 l/m 21,4 km/h S 16,3 C 18,1 C 11,9 km/h
12.06.2018 14:00 20,6 C 76 % 1006,8 hPa 0,0 l/m 0,0 km/h S-SW 16,2 C 20,6 C 0,0 km/h
12.06.2018 15:00 20,6 C 77 % 1006,5 hPa 0,0 l/m 0,0 km/h S-SO 16,4 C 20,6 C 0,0 km/h
12.06.2018 16:00 21,4 C 75 % 1006,0 hPa 0,0 l/m 0,0 km/h O-SO 16,8 C 21,4 C 0,0 km/h
12.06.2018 17:00 21,5 C 73 % 1005,6 hPa 0,0 l/m 0,0 km/h NO 16,4 C 21,5 C 0,0 km/h
12.06.2018 18:00 20,0 C 78 % 1005,8 hPa 0,0 l/m 0,0 km/h O-NO 16,0 C 20,0 C 0,0 km/h
12.06.2018 19:00 19,4 C 80 % 1005,5 hPa 0,0 l/m 0,0 km/h N-NO 15,9 C 19,4 C 0,0 km/h
12.06.2018 20:00 18,9 C 80 % 1005,7 hPa 0,0 l/m 0,0 km/h N-NO 15,4 C 18,9 C 0,0 km/h
12.06.2018 21:00 18,4 C 82 % 1006,2 hPa 0,0 l/m 0,0 km/h NW 15,3 C 18,4 C 0,0 km/h
12.06.2018 22:00 16,9 C 84 % 1006,9 hPa 0,0 l/m 7,8 km/h N-NW 14,2 C 16,2 C 4,3 km/h
12.06.2018 23:00 16,2 C 84 % 1007,3 hPa 0,0 l/m 14,3 km/h N 13,5 C 12,9 C 7,9 km/h
13.06.2018 00:00 15,8 C 84 % 1007,4 hPa 0,0 l/m 9,7 km/h N-NW 13,1 C 14,1 C 5,4 km/h
13.06.2018 01:00 15,6 C 84 % 1007,4 hPa 0,0 l/m 0,0 km/h N-NW 12,9 C 15,6 C 0,0 km/h
13.06.2018 02:00 15,2 C 84 % 1007,7 hPa 0,0 l/m 3,2 km/h NW 12,5 C 15,2 C 1,8 km/h
13.06.2018 03:00 14,2 C 84 % 1007,7 hPa 0,0 l/m 3,2 km/h N 11,5 C 14,2 C 1,8 km/h
13.06.2018 04:00 14,4 C 84 % 1007,9 hPa 0,0 l/m 0,0 km/h N 11,7 C 14,4 C 0,0 km/h
13.06.2018 05:00 14,2 C 84 % 1008,5 hPa 0,0 l/m 1,3 km/h N 11,5 C 14,2 C 0,7 km/h
13.06.2018 06:00 14,3 C 84 % 1008,9 hPa 0,0 l/m 0,0 km/h N 11,6 C 14,3 C 0,0 km/h
13.06.2018 07:00 14,6 C 84 % 1009,4 hPa 0,0 l/m 0,0 km/h NW 11,9 C 14,6 C 0,0 km/h
13.06.2018 08:00 15,3 C 83 % 1009,8 hPa 0,0 l/m 2,6 km/h N 12,4 C 15,3 C 1,4 km/h
13.06.2018 09:00 15,8 C 80 % 1010,5 hPa 0,0 l/m 0,0 km/h N-NW 12,4 C 15,8 C 0,0 km/h
13.06.2018 10:00 16,6 C 76 % 1010,8 hPa 0,0 l/m 0,0 km/h O-NO 12,3 C 16,6 C 0,0 km/h
13.06.2018 11:00 17,1 C 75 % 1011,2 hPa 0,0 l/m 4,5 km/h N 12,6 C 17,1 C 2,5 km/h
13.06.2018 12:00 16,9 C 73 % 1011,5 hPa 0,0 l/m 12,3 km/h N-NO 12,0 C 14,4 C 6,8 km/h
13.06.2018 13:00 17,8 C 67 % 1011,7 hPa 0,0 l/m 0,0 km/h N-NO 11,6 C 17,8 C 0,0 km/h
13.06.2018 14:00 18,5 C 60 % 1011,4 hPa 0,0 l/m 2,6 km/h N-NO 10,6 C 18,5 C 1,4 km/h
13.06.2018 15:00 18,8 C 60 % 1012,0 hPa 0,0 l/m 10,4 km/h N 10,9 C 17,2 C 5,8 km/h
13.06.2018 16:00 19,0 C 57 % 1012,3 hPa 0,0 l/m 6,5 km/h N-NO 10,3 C 19,0 C 3,6 km/h
13.06.2018 17:00 18,1 C 58 % 1012,3 hPa 0,0 l/m 1,3 km/h N 9,7 C 18,1 C 0,7 km/h
13.06.2018 18:00 18,4 C 59 % 1012,7 hPa 0,0 l/m 15,6 km/h NO 10,2 C 15,2 C 8,6 km/h
13.06.2018 19:00 17,4 C 61 % 1013,2 hPa 0,0 l/m 0,0 km/h NO 9,8 C 17,4 C 0,0 km/h
13.06.2018 20:00 16,6 C 64 % 1013,5 hPa 0,0 l/m 0,0 km/h NO 9,8 C 16,6 C 0,0 km/h
13.06.2018 21:00 15,4 C 70 % 1014,3 hPa 0,0 l/m 0,0 km/h O-NO 10,0 C 15,4 C 0,0 km/h
13.06.2018 22:00 14,1 C 75 % 1014,6 hPa 0,0 l/m 0,0 km/h O-SO 9,7 C 14,1 C 0,0 km/h
13.06.2018 23:00 12,4 C 79 % 1014,8 hPa 0,0 l/m 0,0 km/h SO 8,9 C 12,4 C 0,0 km/h
14.06.2018 00:00 11,6 C 81 % 1014,8 hPa 0,0 l/m 0,0 km/h O-SO 8,5 C 11,6 C 0,0 km/h
14.06.2018 01:00 10,6 C 82 % 1014,8 hPa 0,0 l/m 0,0 km/h O-SO 7,7 C 10,6 C 0,0 km/h
14.06.2018 02:00 10,1 C 83 % 1014,4 hPa 0,0 l/m 0,0 km/h SO 7,3 C 10,1 C 0,0 km/h
14.06.2018 03:00 9,6 C 84 % 1013,9 hPa 0,0 l/m 0,0 km/h SO 7,0 C 9,6 C 0,0 km/h
14.06.2018 04:00 9,3 C 84 % 1014,0 hPa 0,0 l/m 0,0 km/h O-NO 6,7 C 9,3 C 0,0 km/h
14.06.2018 05:00 8,9 C 84 % 1014,1 hPa 0,0 l/m 0,0 km/h O-NO 6,3 C 8,9 C 0,0 km/h
14.06.2018 06:00 9,8 C 85 % 1014,3 hPa 0,0 l/m 0,0 km/h O-NO 7,4 C 9,8 C 0,0 km/h
14.06.2018 07:00 11,9 C 84 % 1014,4 hPa 0,0 l/m 0,0 km/h SW 9,3 C 11,9 C 0,0 km/h
14.06.2018 08:00 14,1 C 79 % 1014,2 hPa 0,0 l/m 0,0 km/h W 10,5 C 14,1 C 0,0 km/h
14.06.2018 09:00 15,9 C 75 % 1014,2 hPa 0,0 l/m 0,0 km/h N 11,5 C 15,9 C 0,0 km/h
14.06.2018 10:00 17,7 C 59 % 1013,8 hPa 0,0 l/m 0,0 km/h W 9,6 C 17,7 C 0,0 km/h
14.06.2018 11:00 19,1 C 55 % 1013,9 hPa 0,0 l/m 0,0 km/h N-NW 9,8 C 19,1 C 0,0 km/h
14.06.2018 12:00 19,9 C 55 % 1013,4 hPa 0,0 l/m 20,1 km/h NO 10,6 C 16,1 C 11,2 km/h
14.06.2018 13:00 20,6 C 54 % 1013,5 hPa 0,0 l/m 13,0 km/h N-NW 11,0 C 18,5 C 7,2 km/h
14.06.2018 14:00 21,4 C 52 % 1013,2 hPa 0,0 l/m 18,8 km/h SW 11,1 C 18,2 C 10,4 km/h
14.06.2018 15:00 21,8 C 52 % 1012,7 hPa 0,0 l/m 0,0 km/h W-SW 11,5 C 21,8 C 0,0 km/h
14.06.2018 16:00 21,8 C 52 % 1012,5 hPa 0,0 l/m 10,4 km/h W 11,5 C 20,5 C 5,8 km/h
14.06.2018 17:00 22,2 C 50 % 1012,5 hPa 0,0 l/m 0,0 km/h NW 11,3 C 22,2 C 0,0 km/h
14.06.2018 18:00 21,8 C 49 % 1012,7 hPa 0,0 l/m 0,0 km/h W-SW 10,6 C 21,8 C 0,0 km/h
14.06.2018 19:00 19,8 C 56 % 1012,8 hPa 0,0 l/m 0,0 km/h W 10,8 C 19,8 C 0,0 km/h
14.06.2018 20:00 18,8 C 61 % 1013,2 hPa 0,0 l/m 0,0 km/h W-SW 11,1 C 18,8 C 0,0 km/h
14.06.2018 21:00 16,6 C 71 % 1014,0 hPa 0,0 l/m 0,0 km/h N 11,3 C 16,6 C 0,0 km/h
14.06.2018 22:00 15,7 C 74 % 1014,7 hPa 0,0 l/m 0,0 km/h SO 11,1 C 15,7 C 0,0 km/h
14.06.2018 23:00 15,4 C 76 % 1014,9 hPa 0,0 l/m 0,0 km/h O 11,2 C 15,4 C 0,0 km/h
15.06.2018 00:00 14,8 C 78 % 1014,6 hPa 0,0 l/m 0,0 km/h O 11,0 C 14,8 C 0,0 km/h
15.06.2018 01:00 14,4 C 79 % 1014,4 hPa 0,0 l/m 0,0 km/h N-NW 10,8 C 14,4 C 0,0 km/h
15.06.2018 02:00 14,2 C 79 % 1014,3 hPa 0,0 l/m 0,0 km/h O-SO 10,6 C 14,2 C 0,0 km/h
15.06.2018 03:00 13,6 C 81 % 1014,2 hPa 0,0 l/m 0,0 km/h O-SO 10,4 C 13,6 C 0,0 km/h
15.06.2018 04:00 13,0 C 81 % 1014,2 hPa 0,0 l/m 0,0 km/h S-SO 9,8 C 13,0 C 0,0 km/h
15.06.2018 05:00 12,5 C 83 % 1014,0 hPa 0,0 l/m 0,0 km/h SO 9,7 C 12,5 C 0,0 km/h
15.06.2018 06:00 13,2 C 83 % 1013,8 hPa 0,0 l/m 0,0 km/h SO 10,4 C 13,2 C 0,0 km/h
15.06.2018 07:00 14,4 C 81 % 1014,0 hPa 0,0 l/m 0,0 km/h O-SO 11,2 C 14,4 C 0,0 km/h
15.06.2018 08:00 16,3 C 77 % 1014,5 hPa 0,0 l/m 0,0 km/h O-SO 12,3 C 16,3 C 0,0 km/h
15.06.2018 09:00 18,2 C 72 % 1014,3 hPa 0,0 l/m 0,0 km/h N-NW 13,1 C 18,2 C 0,0 km/h
15.06.2018 10:00 19,9 C 65 % 1014,1 hPa 0,0 l/m 0,0 km/h O-NO 13,1 C 19,9 C 0,0 km/h
15.06.2018 11:00 21,3 C 63 % 1013,9 hPa 0,0 l/m 0,0 km/h N-NW 14,0 C 21,3 C 0,0 km/h
15.06.2018 12:00 21,7 C 59 % 1013,7 hPa 0,0 l/m 0,0 km/h O-NO 13,3 C 21,7 C 0,0 km/h
15.06.2018 13:00 22,9 C 56 % 1013,5 hPa 0,0 l/m 0,0 km/h N-NW 13,6 C 22,9 C 0,0 km/h
15.06.2018 14:00 23,8 C 55 % 1012,9 hPa 0,0 l/m 0,0 km/h NW 14,2 C 23,8 C 0,0 km/h
15.06.2018 15:00 23,4 C 54 % 1012,9 hPa 0,0 l/m 1,3 km/h NW 13,6 C 23,4 C 0,7 km/h
15.06.2018 16:00 24,1 C 52 % 1012,7 hPa 0,0 l/m 11,7 km/h NW 13,6 C 22,8 C 6,5 km/h
15.06.2018 17:00 24,8 C 52 % 1012,5 hPa 0,0 l/m 0,0 km/h N-NW 14,3 C 24,8 C 0,0 km/h
15.06.2018 18:00 23,8 C 53 % 1012,5 hPa 0,0 l/m 0,0 km/h N 13,6 C 23,8 C 0,0 km/h
15.06.2018 19:00 23,1 C 56 % 1012,8 hPa 0,0 l/m 20,1 km/h N 13,8 C 20,2 C 11,2 km/h
15.06.2018 20:00 21,2 C 61 % 1013,1 hPa 0,0 l/m 0,0 km/h N-NO 13,4 C 21,2 C 0,0 km/h
15.06.2018 21:00 18,8 C 71 % 1013,2 hPa 0,0 l/m 0,0 km/h O-NO 13,4 C 18,8 C 0,0 km/h
15.06.2018 22:00 17,8 C 76 % 1013,7 hPa 0,0 l/m 0,0 km/h O 13,5 C 17,8 C 0,0 km/h
15.06.2018 23:00 16,7 C 78 % 1013,5 hPa 0,0 l/m 0,0 km/h O 12,8 C 16,7 C 0,0 km/h
16.06.2018 00:00 15,6 C 80 % 1013,5 hPa 0,0 l/m 0,0 km/h O-NO 12,2 C 15,6 C 0,0 km/h
16.06.2018 01:00 15,2 C 81 % 1013,4 hPa 0,0 l/m 0,0 km/h O-NO 12,0 C 15,2 C 0,0 km/h
16.06.2018 02:00 14,8 C 81 % 1013,0 hPa 0,0 l/m 0,0 km/h O-NO 11,6 C 14,8 C 0,0 km/h
16.06.2018 03:00 13,7 C 81 % 1012,8 hPa 0,0 l/m 0,0 km/h O-NO 10,5 C 13,7 C 0,0 km/h
16.06.2018 04:00 13,0 C 83 % 1013,1 hPa 0,0 l/m 0,0 km/h O-NO 10,2 C 13,0 C 0,0 km/h
16.06.2018 05:00 12,9 C 84 % 1013,2 hPa 0,0 l/m 0,0 km/h O-NO 10,3 C 12,9 C 0,0 km/h
16.06.2018 06:00 14,4 C 83 % 1013,3 hPa 0,0 l/m 0,0 km/h SO 11,5 C 14,4 C 0,0 km/h
16.06.2018 07:00 16,8 C 80 % 1013,6 hPa 0,0 l/m 0,0 km/h S-SO 13,3 C 16,8 C 0,0 km/h
16.06.2018 08:00 18,8 C 72 % 1013,6 hPa 0,0 l/m 0,0 km/h N-NW 13,6 C 18,8 C 0,0 km/h
16.06.2018 09:00 20,2 C 69 % 1013,7 hPa 0,0 l/m 0,0 km/h NW 14,3 C 20,2 C 0,0 km/h
16.06.2018 10:00 21,2 C 68 % 1013,6 hPa 0,0 l/m 0,0 km/h N-NW 15,1 C 21,2 C 0,0 km/h
16.06.2018 11:00 22,8 C 62 % 1013,6 hPa 0,0 l/m 0,0 km/h O-NO 15,1 C 22,8 C 0,0 km/h
16.06.2018 12:00 24,1 C 56 % 1013,2 hPa 0,0 l/m 0,0 km/h N-NW 14,8 C 24,1 C 0,0 km/h
16.06.2018 13:00 24,3 C 52 % 1012,7 hPa 0,0 l/m 0,0 km/h N 13,8 C 24,3 C 0,0 km/h
16.06.2018 14:00 24,9 C 50 % 1012,5 hPa 0,0 l/m 0,0 km/h NO 13,7 C 24,9 C 0,0 km/h
16.06.2018 15:00 25,4 C 45 % 1012,2 hPa 0,0 l/m 0,0 km/h S-SW 12,6 C 25,4 C 0,0 km/h
16.06.2018 16:00 26,3 C 46 % 1012,0 hPa 0,0 l/m 0,0 km/h W-SW 13,7 C 26,3 C 0,0 km/h
16.06.2018 17:00 26,3 C 44 % 1011,7 hPa 0,0 l/m 16,2 km/h NW 13,1 C 24,7 C 9,0 km/h
16.06.2018 18:00 26,2 C 44 % 1011,4 hPa 0,0 l/m 0,0 km/h W-NW 13,0 C 26,2 C 0,0 km/h
16.06.2018 19:00 25,5 C 48 % 1011,9 hPa 0,0 l/m 0,0 km/h N-NW 13,7 C 25,5 C 0,0 km/h
16.06.2018 20:00 23,4 C 55 % 1012,0 hPa 0,0 l/m 0,0 km/h NO 13,8 C 23,4 C 0,0 km/h
16.06.2018 21:00 20,3 C 66 % 1012,7 hPa 0,0 l/m 0,0 km/h O-NO 13,7 C 20,3 C 0,0 km/h
16.06.2018 22:00 19,4 C 68 % 1013,1 hPa 0,0 l/m 0,0 km/h N-NO 13,3 C 19,4 C 0,0 km/h
16.06.2018 23:00 18,6 C 73 % 1013,9 hPa 0,0 l/m 0,0 km/h O-NO 13,7 C 18,6 C 0,0 km/h
17.06.2018 00:00 18,1 C 74 % 1014,3 hPa 0,0 l/m 0,0 km/h O-NO 13,4 C 18,1 C 0,0 km/h
17.06.2018 01:00 17,4 C 76 % 1014,4 hPa 0,0 l/m 0,0 km/h O-SO 13,1 C 17,4 C 0,0 km/h
17.06.2018 02:00 16,4 C 79 % 1014,5 hPa 0,0 l/m 0,0 km/h SO 12,7 C 16,4 C 0,0 km/h
17.06.2018 03:00 16,3 C 80 % 1014,3 hPa 0,0 l/m 0,0 km/h O-SO 12,8 C 16,3 C 0,0 km/h
17.06.2018 04:00 16,1 C 81 % 1014,6 hPa 0,0 l/m 0,0 km/h O-SO 12,8 C 16,1 C 0,0 km/h
17.06.2018 05:00 16,4 C 81 % 1015,1 hPa 0,0 l/m 0,0 km/h O-SO 13,1 C 16,4 C 0,0 km/h
17.06.2018 06:00 16,9 C 81 % 1015,6 hPa 0,0 l/m 0,0 km/h SO 13,6 C 16,9 C 0,0 km/h
17.06.2018 07:00 18,2 C 80 % 1015,5 hPa 0,0 l/m 0,0 km/h W-SW 14,7 C 18,2 C 0,0 km/h
17.06.2018 08:00 19,9 C 76 % 1016,2 hPa 0,0 l/m 0,0 km/h N-NW 15,5 C 19,9 C 0,0 km/h
17.06.2018 09:00 21,0 C 65 % 1016,3 hPa 0,0 l/m 0,0 km/h W 14,2 C 21,0 C 0,0 km/h
17.06.2018 10:00 21,3 C 62 % 1016,5 hPa 0,0 l/m 0,0 km/h W-NW 13,7 C 21,3 C 0,0 km/h
17.06.2018 11:00 21,2 C 60 % 1016,5 hPa 0,0 l/m 0,0 km/h N-NW 13,1 C 21,2 C 0,0 km/h
17.06.2018 12:00 22,4 C 58 % 1016,1 hPa 0,0 l/m 5,8 km/h N 13,7 C 22,4 C 3,2 km/h
17.06.2018 13:00 23,4 C 52 % 1015,9 hPa 0,0 l/m 10,4 km/h W 13,0 C 22,3 C 5,8 km/h
17.06.2018 14:00 23,8 C 52 % 1015,9 hPa 0,0 l/m 0,0 km/h N-NW 13,3 C 23,8 C 0,0 km/h
17.06.2018 15:00 23,3 C 54 % 1015,9 hPa 0,0 l/m 1,9 km/h N-NW 13,5 C 23,3 C 1,1 km/h
17.06.2018 16:00 22,7 C 55 % 1016,1 hPa 0,0 l/m 13,6 km/h NW 13,2 C 20,8 C 7,6 km/h
17.06.2018 17:00 21,6 C 58 % 1016,3 hPa 0,0 l/m 0,0 km/h W 13,0 C 21,6 C 0,0 km/h
17.06.2018 18:00 21,2 C 61 % 1016,2 hPa 0,0 l/m 0,0 km/h NW 13,4 C 21,2 C 0,0 km/h
17.06.2018 19:00 21,1 C 62 % 1016,7 hPa 0,0 l/m 0,0 km/h N-NW 13,5 C 21,1 C 0,0 km/h
17.06.2018 20:00 20,4 C 64 % 1017,5 hPa 0,0 l/m 0,0 km/h N-NO 13,4 C 20,4 C 0,0 km/h
17.06.2018 21:00 19,8 C 65 % 1018,0 hPa 0,0 l/m 3,2 km/h NO 13,0 C 19,8 C 1,8 km/h
17.06.2018 22:00 19,2 C 67 % 1018,3 hPa 0,0 l/m 0,0 km/h N 12,9 C 19,2 C 0,0 km/h
17.06.2018 23:00 18,5 C 69 % 1018,8 hPa 0,0 l/m 0,0 km/h N 12,7 C 18,5 C 0,0 km/h
Min-Datum _ 14.06.18 16.06.18 12.06.18 - 11.06.18 - 14.06.18 14.06.18 11.06.18
_ Min-Zeit 05:53 17:53 19:53 - 01:53 - 05:53 05:53 01:53
Minimum _ 8,9 C 44 % 1005,5 hPa - 0,0 km/h - 6,3 C 8,9 C 0,0 km/h
Max-Datum _ 16.06.18 14.06.18 17.06.18 11.06.18 12.06.18 - 11.06.18 16.06.18 12.06.18
_ Max-Zeit 16:53 06:53 23:53 17:53 13:53 - 13:53 16:53 13:53
Maximum _ 26,3 C 85 % 1018,8 hPa 4,1 l/m 21,4 km/h
S
- 19,4 C 26,3 C 11,9 km/h
S
Durchschnitt _ 18,5 C 72 % 1011,6 hPa #4,7 l/m 2,0 km/h O-NO 13,0 C 18,2 C 1,1 km/h
www.sexauwetter.de